Time;durP1;ratioP1;P1;durP2;ratioP2;P2;SDS_P1;SDS_P2;PMS_P1;PMS_P2;Temp;Humidity;BMP_temperature;BMP_pressure;BME280_temperature;BME280_humidity;BME280_pressure;Samples;Min_cycle;Max_cycle;Signal;HPM_P1;HPM_P2
2023/07/26 00:02:04;;;;;;;4.60;1.98;;;15.00;99.90;;;;;;5054819;28;20255;-49
2023/07/26 00:04:29;;;;;;;6.22;1.73;;;15.00;99.90;;;;;;5055164;28;20167;-48
2023/07/26 00:06:55;;;;;;;5.32;1.92;;;15.00;99.90;;;;;;5055068;28;20631;-51
2023/07/26 00:09:21;;;;;;;7.70;2.35;;;14.90;99.90;;;;;;5054924;28;20159;-48
2023/07/26 00:11:47;;;;;;;4.65;2.40;;;14.90;99.90;;;;;;5054656;28;20224;-48
2023/07/26 00:14:13;;;;;;;4.68;2.10;;;15.00;99.90;;;;;;5054655;28;20286;-49
2023/07/26 00:16:39;;;;;;;7.32;2.70;;;14.90;99.90;;;;;;5055059;28;20231;-48
2023/07/26 00:19:05;;;;;;;3.28;2.20;;;14.90;99.90;;;;;;5054637;28;20183;-48
2023/07/26 00:21:31;;;;;;;6.13;2.00;;;14.90;99.90;;;;;;5054816;28;20190;-49
2023/07/26 00:23:58;;;;;;;8.85;2.83;;;14.90;99.90;;;;;;5054394;28;20175;-48
2023/07/26 00:26:24;;;;;;;3.95;2.10;;;14.90;99.90;;;;;;5054742;28;20257;-49
2023/07/26 00:28:50;;;;;;;4.60;2.25;;;15.00;99.90;;;;;;5054713;28;20220;-49
2023/07/26 00:31:16;;;;;;;5.18;2.00;;;15.00;99.90;;;;;;5054299;28;20167;-49
2023/07/26 00:33:41;;;;;;;4.35;2.25;;;15.00;99.90;;;;;;5053205;28;20723;-49
2023/07/26 00:36:08;;;;;;;3.35;2.17;;;14.60;99.90;;;;;;5054983;28;20174;-50
2023/07/26 00:38:33;;;;;;;6.15;2.10;;;15.10;99.90;;;;;;5054221;28;20530;-48
2023/07/26 00:40:59;;;;;;;3.97;2.35;;;15.10;99.90;;;;;;5054367;28;20163;-49
2023/07/26 00:43:24;;;;;;;3.78;2.15;;;15.10;99.90;;;;;;5054222;28;20175;-49
2023/07/26 00:45:50;;;;;;;5.53;2.10;;;15.10;99.90;;;;;;5054202;28;20178;-49
2023/07/26 00:48:16;;;;;;;4.47;2.13;;;15.10;99.90;;;;;;5052907;28;20700;-48
2023/07/26 00:50:43;;;;;;;5.25;2.33;;;15.00;99.90;;;;;;5052785;28;20241;-48
2023/07/26 00:53:09;;;;;;;3.03;2.20;;;15.10;99.90;;;;;;5054235;28;20210;-49
2023/07/26 00:55:35;;;;;;;2.75;1.75;;;15.20;99.90;;;;;;5053960;28;20177;-49
2023/07/26 00:58:02;;;;;;;3.45;1.80;;;15.20;99.90;;;;;;5053350;28;20258;-49
2023/07/26 01:00:28;;;;;;;4.13;2.50;;;15.30;99.90;;;;;;5054001;28;20158;-48
2023/07/26 01:02:53;;;;;;;4.97;2.10;;;15.20;99.90;;;;;;5053921;28;20186;-48
2023/07/26 01:05:19;;;;;;;3.03;2.13;;;15.20;99.90;;;;;;5053917;28;20255;-48
2023/07/26 01:08:04;;;;;;;6.28;2.05;;;15.10;99.90;;;;;;5053775;28;20170;-49
2023/07/26 01:10:56;;;;;;;4.47;2.00;;;15.20;99.90;;;;;;5053628;28;20178;-49
2023/07/26 01:13:51;;;;;;;8.43;2.28;;;15.20;99.90;;;;;;5053589;28;20260;-48
2023/07/26 01:16:17;;;;;;;5.55;1.83;;;15.10;99.90;;;;;;5051531;28;20209;-48
2023/07/26 01:18:42;;;;;;;3.85;2.00;;;15.10;99.90;;;;;;5053680;28;20201;-49
2023/07/26 01:21:08;;;;;;;5.35;2.38;;;15.20;99.90;;;;;;5053959;28;20170;-48
2023/07/26 01:23:35;;;;;;;6.25;2.13;;;15.30;99.90;;;;;;5052981;28;20596;-48
2023/07/26 01:26:00;;;;;;;2.00;1.80;;;15.30;99.90;;;;;;5053651;28;20182;-48
2023/07/26 01:28:26;;;;;;;4.22;2.47;;;15.30;99.90;;;;;;5053428;28;20645;-48
2023/07/26 01:30:53;;;;;;;4.20;1.80;;;15.30;99.90;;;;;;5053378;28;20195;-49
2023/07/26 01:33:20;;;;;;;3.60;2.40;;;15.40;99.90;;;;;;5053169;28;20202;-48
2023/07/26 01:35:47;;;;;;;4.15;2.20;;;15.40;99.90;;;;;;5053501;28;20189;-48
2023/07/26 01:38:14;;;;;;;5.00;2.10;;;15.40;99.90;;;;;;5053194;28;20167;-49
2023/07/26 01:40:40;;;;;;;3.60;2.00;;;15.40;99.90;;;;;;5053461;28;20167;-48
2023/07/26 01:43:07;;;;;;;2.65;2.42;;;15.40;99.90;;;;;;5053003;28;20178;-49
2023/07/26 01:45:32;;;;;;;2.05;1.90;;;15.40;99.90;;;;;;5033102;28;20187;-48
2023/07/26 01:47:58;;;;;;;3.58;1.88;;;15.40;99.90;;;;;;5033329;28;20171;-48
2023/07/26 01:50:24;;;;;;;6.20;2.65;;;15.30;99.90;;;;;;5031826;28;20167;-48
2023/07/26 01:52:49;;;;;;;6.03;2.30;;;15.30;99.90;;;;;;5033167;28;20214;-48
2023/07/26 01:55:15;;;;;;;4.35;1.92;;;15.20;99.90;;;;;;5031727;28;20178;-49
2023/07/26 01:57:40;;;;;;;5.00;1.92;;;15.30;99.90;;;;;;5033514;28;20171;-49
2023/07/26 02:00:07;;;;;;;3.67;2.13;;;15.20;99.90;;;;;;5032866;28;20171;-49
2023/07/26 02:02:33;;;;;;;6.60;2.20;;;15.20;99.90;;;;;;5045742;28;20642;-48
2023/07/26 02:04:58;;;;;;;4.20;2.78;;;15.10;99.90;;;;;;5052596;28;20262;-49
2023/07/26 02:07:24;;;;;;;5.40;2.08;;;15.10;99.90;;;;;;5052570;28;20170;-48
2023/07/26 02:09:50;;;;;;;4.38;2.25;;;15.10;99.90;;;;;;5052467;28;20182;-48
2023/07/26 02:12:15;;;;;;;4.63;2.15;;;15.00;99.90;;;;;;5051249;28;20564;-49
2023/07/26 02:14:41;;;;;;;3.90;1.88;;;15.00;99.90;;;;;;5052783;28;20206;-48
2023/07/26 02:17:06;;;;;;;2.25;1.95;;;15.00;99.90;;;;;;5052867;28;20170;-48
2023/07/26 02:19:32;;;;;;;5.00;2.30;;;15.00;99.90;;;;;;5052308;28;20253;-48
2023/07/26 02:21:57;;;;;;;4.93;2.47;;;15.00;99.90;;;;;;5052113;28;20170;-47
2023/07/26 02:24:23;;;;;;;6.55;2.30;;;15.00;99.90;;;;;;5052574;28;20184;-48
2023/07/26 02:26:48;;;;;;;10.52;2.13;;;15.00;99.90;;;;;;5052259;28;20551;-48
2023/07/26 02:29:14;;;;;;;7.40;2.45;;;15.00;99.90;;;;;;5052057;28;20158;-48
2023/07/26 02:31:40;;;;;;;11.05;2.50;;;15.00;99.90;;;;;;5052535;28;20174;-48
2023/07/26 02:34:05;;;;;;;6.93;2.35;;;15.00;99.90;;;;;;5050749;28;20272;-48
2023/07/26 02:36:31;;;;;;;10.55;3.17;;;14.90;99.90;;;;;;5052023;28;20174;-47
2023/07/26 02:38:56;;;;;;;9.50;2.60;;;15.00;99.90;;;;;;5051995;28;20171;-47
2023/07/26 02:41:22;;;;;;;9.10;2.60;;;14.90;99.90;;;;;;5051720;28;20205;-48
2023/07/26 02:43:47;;;;;;;10.15;2.75;;;14.90;99.90;;;;;;5051938;28;20637;-48
2023/07/26 02:46:13;;;;;;;4.25;2.45;;;14.90;99.90;;;;;;5051936;28;20162;-48
2023/07/26 02:48:38;;;;;;;5.55;2.10;;;15.00;99.90;;;;;;5052314;28;20256;-48
2023/07/26 02:51:04;;;;;;;5.70;2.58;;;14.90;99.90;;;;;;5051355;28;20179;-48
2023/07/26 02:53:29;;;;;;;6.82;2.80;;;15.00;99.90;;;;;;5051752;28;20223;-48
2023/07/26 02:55:55;;;;;;;7.18;2.65;;;14.90;99.90;;;;;;5050519;28;20175;-48
2023/07/26 02:58:21;;;;;;;6.60;2.40;;;14.90;99.90;;;;;;5050406;28;20170;-48
2023/07/26 03:00:53;;;;;;;7.90;2.55;;;14.90;99.90;;;;;;5051573;28;20197;-49
2023/07/26 03:03:19;;;;;;;5.68;2.80;;;14.90;99.90;;;;;;5051653;28;20245;-48
2023/07/26 03:05:44;;;;;;;6.10;2.50;;;14.80;99.90;;;;;;5051631;28;20645;-48
2023/07/26 03:08:10;;;;;;;4.55;2.63;;;14.80;99.90;;;;;;5052028;28;20254;-48
2023/07/26 03:10:35;;;;;;;4.40;2.60;;;14.80;99.90;;;;;;5051483;28;20249;-48
2023/07/26 03:13:01;;;;;;;4.28;2.67;;;14.80;99.90;;;;;;5051244;28;20230;-48
2023/07/26 03:15:26;;;;;;;3.92;2.85;;;14.70;99.90;;;;;;5051545;28;20285;-49
2023/07/26 03:17:52;;;;;;;4.57;3.00;;;14.70;99.90;;;;;;5051486;28;20167;-48
2023/07/26 03:20:18;;;;;;;4.15;3.05;;;14.70;99.90;;;;;;5049764;28;20166;-48
2023/07/26 03:22:43;;;;;;;5.30;3.05;;;14.70;99.90;;;;;;5051362;28;20159;-48
2023/07/26 03:25:09;;;;;;;3.70;3.13;;;14.70;99.90;;;;;;5051778;28;20232;-48
2023/07/26 03:27:34;;;;;;;6.28;3.30;;;14.70;99.90;;;;;;5051375;28;20170;-48
2023/07/26 03:30:00;;;;;;;7.78;2.97;;;14.70;99.90;;;;;;5051357;28;20170;-48
2023/07/26 03:32:25;;;;;;;3.95;2.92;;;14.70;99.90;;;;;;5051005;28;20588;-49
2023/07/26 03:34:51;;;;;;;8.40;3.30;;;14.70;99.90;;;;;;5051355;28;20692;-48
2023/07/26 03:37:16;;;;;;;6.18;2.90;;;14.70;99.90;;;;;;5051253;28;20244;-48
2023/07/26 03:39:42;;;;;;;5.68;3.47;;;14.70;99.90;;;;;;5050979;28;20225;-48
2023/07/26 03:42:08;;;;;;;11.20;3.30;;;14.70;99.90;;;;;;5051569;28;20185;-49
2023/07/26 03:44:33;;;;;;;6.03;3.00;;;14.80;99.90;;;;;;5051172;28;20163;-48
2023/07/26 03:46:59;;;;;;;5.60;3.05;;;14.70;99.90;;;;;;5051421;28;20181;-48
2023/07/26 03:49:24;;;;;;;4.13;3.08;;;14.80;99.90;;;;;;5051126;28;20205;-48
2023/07/26 03:51:50;;;;;;;8.30;3.33;;;14.80;99.90;;;;;;5050884;28;20186;-48
2023/07/26 03:54:15;;;;;;;5.32;3.25;;;14.80;99.90;;;;;;5050854;28;20208;-48
2023/07/26 03:56:41;;;;;;;6.65;3.28;;;14.80;99.90;;;;;;5051028;28;20171;-48
2023/07/26 03:59:06;;;;;;;5.45;2.97;;;14.80;99.90;;;;;;5051403;28;20171;-47
2023/07/26 04:01:32;;;;;;;8.18;3.17;;;14.80;99.90;;;;;;5051034;28;20170;-48
2023/07/26 04:03:57;;;;;;;7.22;2.90;;;14.80;99.90;;;;;;5051002;28;20171;-48
2023/07/26 04:06:23;;;;;;;3.72;2.75;;;14.70;99.90;;;;;;5050981;28;20228;-48
2023/07/26 04:08:49;;;;;;;7.70;3.47;;;14.60;99.90;;;;;;5050900;28;20212;-47
2023/07/26 04:11:14;;;;;;;5.75;2.60;;;14.60;99.90;;;;;;5050538;28;20219;-48
2023/07/26 04:13:40;;;;;;;2.55;2.33;;;14.60;99.90;;;;;;5051317;28;20206;-49
2023/07/26 04:16:19;;;;;;;6.45;2.00;;;14.50;99.90;;;;;;5050956;28;20688;-48
2023/07/26 04:18:44;;;;;;;7.60;2.83;;;14.40;99.90;;;;;;5050944;28;20182;-48
2023/07/26 04:21:16;;;;;;;2.80;1.88;;;14.40;99.90;;;;;;5051281;28;20171;-48
2023/07/26 04:23:42;;;;;;;2.92;1.85;;;14.40;99.90;;;;;;5051149;28;20527;-47
2023/07/26 04:26:08;;;;;;;2.15;1.70;;;14.40;99.90;;;;;;5050688;28;20165;-48
2023/07/26 04:28:34;;;;;;;4.63;2.20;;;14.40;99.90;;;;;;5050190;28;20175;-48
2023/07/26 04:31:00;;;;;;;4.18;2.10;;;14.40;99.90;;;;;;5050780;28;20171;-48
2023/07/26 04:33:26;;;;;;;11.30;6.18;;;14.50;99.90;;;;;;5053509;28;20678;-48
2023/07/26 04:35:51;;;;;;;7.05;4.47;;;14.50;99.90;;;;;;5054466;28;20319;-47
2023/07/26 04:38:20;;;;;;;3.95;2.13;;;14.60;99.90;;;;;;5054308;28;20174;-47
2023/07/26 04:40:48;;;;;;;3.25;2.25;;;14.70;99.90;;;;;;5054537;28;20175;-48
2023/07/26 04:43:19;;;;;;;6.38;3.28;;;14.80;99.90;;;;;;5054259;28;20297;-48
2023/07/26 04:45:47;;;;;;;4.10;2.83;;;14.80;99.90;;;;;;5053913;28;20178;-47
2023/07/26 04:48:13;;;;;;;3.65;2.38;;;14.80;99.90;;;;;;5054183;28;20182;-47
2023/07/26 04:50:38;;;;;;;3.95;2.10;;;14.80;99.90;;;;;;5054447;28;20181;-47
2023/07/26 04:53:04;;;;;;;7.38;1.80;;;14.80;99.90;;;;;;5053911;28;20202;-47
2023/07/26 04:55:30;;;;;;;4.65;2.25;;;14.70;99.90;;;;;;5053701;28;20696;-47
2023/07/26 04:57:56;;;;;;;3.53;1.90;;;14.80;99.90;;;;;;5053825;28;20179;-47
2023/07/26 05:00:21;;;;;;;3.90;2.17;;;14.80;99.90;;;;;;5053912;28;20212;-47
2023/07/26 05:02:47;;;;;;;4.47;2.50;;;14.80;99.90;;;;;;5053856;28;20167;-49
2023/07/26 05:05:12;;;;;;;7.13;1.80;;;14.90;99.90;;;;;;5053685;28;20308;-47
2023/07/26 05:07:38;;;;;;;4.28;1.80;;;14.90;99.90;;;;;;5053736;28;20178;-47
2023/07/26 05:10:04;;;;;;;4.95;2.22;;;15.00;99.90;;;;;;5053302;28;20183;-47
2023/07/26 05:12:29;;;;;;;4.10;1.95;;;15.00;99.90;;;;;;5053369;28;20223;-47
2023/07/26 05:14:55;;;;;;;3.58;1.90;;;15.10;99.90;;;;;;5053520;28;20171;-48
2023/07/26 05:17:20;;;;;;;3.17;2.05;;;15.00;99.90;;;;;;5052707;28;20167;-47
2023/07/26 05:19:46;;;;;;;2.78;2.08;;;15.10;99.90;;;;;;5052783;28;20174;-47
2023/07/26 05:22:11;;;;;;;4.25;2.30;;;15.10;99.90;;;;;;5053410;28;20170;-47
2023/07/26 05:24:37;;;;;;;6.60;2.25;;;15.20;99.90;;;;;;5053634;28;20626;-47
2023/07/26 05:27:03;;;;;;;2.65;2.00;;;15.30;99.90;;;;;;5051714;28;20170;-47
2023/07/26 05:29:29;;;;;;;6.60;2.83;;;15.40;99.90;;;;;;5053461;28;20236;-47
2023/07/26 05:31:55;;;;;;;4.68;2.55;;;15.40;99.90;;;;;;5052893;28;20175;-47
2023/07/26 05:34:20;;;;;;;7.50;2.90;;;15.40;99.90;;;;;;5053213;28;20245;-47
2023/07/26 05:36:46;;;;;;;5.65;3.72;;;15.40;99.90;;;;;;5052630;28;20722;-47
2023/07/26 05:39:12;;;;;;;10.00;3.22;;;15.30;99.90;;;;;;5063886;28;20265;-47
2023/07/26 05:41:38;;;;;;;9.07;3.42;;;15.30;99.90;;;;;;5053329;28;20217;-50
2023/07/26 05:44:04;;;;;;;6.88;3.67;;;15.30;99.90;;;;;;5058102;28;20549;-47
2023/07/26 05:46:29;;;;;;;9.23;4.25;;;15.40;99.90;;;;;;5036208;28;20171;-47
2023/07/26 05:48:55;;;;;;;9.40;3.70;;;15.40;99.90;;;;;;5035309;28;20698;-48
2023/07/26 05:51:20;;;;;;;7.15;3.92;;;15.40;99.90;;;;;;5045518;28;20164;-48
2023/07/26 05:53:46;;;;;;;11.80;3.65;;;15.40;99.90;;;;;;5039456;28;20666;-47
2023/07/26 05:56:13;;;;;;;7.68;3.88;;;15.40;99.90;;;;;;5051247;28;20185;-48
2023/07/26 05:58:38;;;;;;;10.77;3.63;;;15.50;99.90;;;;;;5051561;28;20650;-48
2023/07/26 06:01:04;;;;;;;7.53;3.28;;;15.50;99.90;;;;;;5051132;28;20173;-46
2023/07/26 06:03:29;;;;;;;7.30;3.38;;;15.50;99.90;;;;;;5050880;28;20253;-46
2023/07/26 06:05:55;;;;;;;5.20;3.63;;;15.60;99.90;;;;;;5050401;28;20316;-52
2023/07/26 06:08:20;;;;;;;6.07;3.50;;;15.80;99.90;;;;;;5050940;28;20224;-50
2023/07/26 06:10:46;;;;;;;7.88;3.78;;;15.80;99.90;;;;;;5050763;28;20501;-47
2023/07/26 06:13:12;;;;;;;5.57;3.40;;;15.90;99.90;;;;;;5050751;28;20235;-48
2023/07/26 06:15:40;;;;;;;10.13;3.63;;;16.00;99.90;;;;;;5047488;28;20176;-48
2023/07/26 06:18:06;;;;;;;6.30;3.78;;;16.00;99.90;;;;;;5031689;28;20167;-47
2023/07/26 06:20:31;;;;;;;7.55;3.75;;;16.00;99.90;;;;;;5031179;28;20163;-51
2023/07/26 06:22:57;;;;;;;5.22;3.22;;;16.00;99.90;;;;;;5030754;28;20178;-48
2023/07/26 06:25:22;;;;;;;5.30;4.40;;;15.90;99.90;;;;;;5036054;28;20171;-48
2023/07/26 06:27:48;;;;;;;11.95;4.15;;;15.90;99.90;;;;;;5048643;28;20179;-47
2023/07/26 06:30:15;;;;;;;5.18;3.97;;;15.90;99.90;;;;;;5050513;28;20167;-47
2023/07/26 06:32:41;;;;;;;5.50;3.45;;;15.80;99.90;;;;;;5050675;28;20197;-47
2023/07/26 06:35:08;;;;;;;5.93;3.63;;;15.90;99.90;;;;;;5050993;28;20614;-49
2023/07/26 06:37:35;;;;;;;7.53;3.63;;;15.90;99.90;;;;;;5049076;28;20171;-49
2023/07/26 06:40:01;;;;;;;7.18;3.50;;;16.10;99.90;;;;;;5050364;28;20166;-48
2023/07/26 06:42:26;;;;;;;6.13;3.65;;;16.30;99.90;;;;;;5050321;28;20194;-48
2023/07/26 06:44:52;;;;;;;5.07;3.70;;;16.50;99.90;;;;;;5050383;28;20467;-48
2023/07/26 06:47:18;;;;;;;6.47;3.78;;;16.50;99.90;;;;;;5032811;28;20175;-48
2023/07/26 06:49:44;;;;;;;5.70;3.42;;;16.60;99.90;;;;;;5030486;28;20190;-48
2023/07/26 06:52:09;;;;;;;6.65;3.30;;;16.50;99.90;;;;;;5035710;28;20713;-48
2023/07/26 06:54:36;;;;;;;6.82;3.50;;;16.60;99.90;;;;;;5049745;28;20740;-48
2023/07/26 06:57:02;;;;;;;6.38;4.05;;;16.70;99.90;;;;;;5033607;28;20186;-48
2023/07/26 06:59:27;;;;;;;5.18;3.75;;;16.80;99.90;;;;;;5030208;28;20171;-48
2023/07/26 07:01:53;;;;;;;6.18;3.67;;;16.60;99.90;;;;;;5036819;28;20179;-48
2023/07/26 07:04:18;;;;;;;7.07;3.45;;;16.70;99.90;;;;;;5030361;28;20186;-48
2023/07/26 07:06:44;;;;;;;6.20;3.67;;;16.80;99.90;;;;;;5030110;28;20220;-48
2023/07/26 07:09:10;;;;;;;3.83;3.30;;;16.90;99.90;;;;;;5045229;28;20170;-48
2023/07/26 07:11:35;;;;;;;7.05;4.13;;;16.90;99.90;;;;;;5032953;28;20215;-48
2023/07/26 07:14:02;;;;;;;5.72;3.33;;;17.10;99.90;;;;;;5041353;28;20321;-48
2023/07/26 07:16:28;;;;;;;6.45;3.50;;;17.30;99.90;;;;;;5050410;28;20219;-48
2023/07/26 07:18:54;;;;;;;7.57;3.45;;;17.30;99.90;;;;;;5049953;28;20170;-48
2023/07/26 07:21:20;;;;;;;4.30;3.45;;;17.40;99.90;;;;;;5049812;28;20173;-48
2023/07/26 07:23:46;;;;;;;4.93;3.60;;;17.60;99.90;;;;;;5050003;28;20174;-48
2023/07/26 07:26:12;;;;;;;5.13;3.45;;;17.60;99.90;;;;;;5049659;28;20162;-48
2023/07/26 07:28:37;;;;;;;5.38;3.67;;;17.70;99.90;;;;;;5050163;28;20242;-48
2023/07/26 07:31:03;;;;;;;9.95;4.00;;;17.80;99.90;;;;;;5049696;28;20181;-48
2023/07/26 07:33:28;;;;;;;10.85;4.43;;;17.70;99.90;;;;;;5049641;28;20252;-48
2023/07/26 07:35:54;;;;;;;8.50;3.72;;;18.00;99.90;;;;;;5049556;28;20170;-48
2023/07/26 07:38:19;;;;;;;5.75;4.10;;;18.30;99.90;;;;;;5038122;28;20171;-48
2023/07/26 07:40:46;;;;;;;8.77;3.70;;;18.40;99.90;;;;;;5029660;28;20240;-48
2023/07/26 07:43:11;;;;;;;8.85;3.75;;;18.30;99.90;;;;;;5029739;28;20245;-48
2023/07/26 07:45:43;;;;;;;8.75;4.15;;;18.10;99.90;;;;;;5030767;28;20627;-48
2023/07/26 07:48:09;;;;;;;8.15;4.18;;;18.20;99.90;;;;;;5049949;28;20212;-48
2023/07/26 07:50:34;;;;;;;13.10;4.47;;;18.30;99.90;;;;;;5050103;28;20162;-48
2023/07/26 07:53:00;;;;;;;12.10;4.53;;;18.30;99.90;;;;;;5049751;28;20673;-50
2023/07/26 07:55:26;;;;;;;9.23;4.32;;;18.30;99.90;;;;;;5049464;28;20652;-50
2023/07/26 07:57:52;;;;;;;7.30;3.97;;;18.20;99.90;;;;;;5049523;28;20162;-48
2023/07/26 08:00:17;;;;;;;9.63;5.10;;;18.30;99.90;;;;;;5049562;28;20167;-48
2023/07/26 08:02:43;;;;;;;7.82;4.13;;;18.60;99.90;;;;;;5049410;28;20163;-48
2023/07/26 08:05:09;;;;;;;6.43;3.78;;;18.70;99.90;;;;;;5037329;28;20168;-48
2023/07/26 08:07:35;;;;;;;7.85;4.00;;;18.60;99.90;;;;;;5032993;28;20511;-48
2023/07/26 08:10:01;;;;;;;7.60;4.03;;;18.50;99.90;;;;;;5033654;28;20202;-48
2023/07/26 08:12:26;;;;;;;9.57;4.03;;;18.60;99.90;;;;;;5033144;28;20226;-48
2023/07/26 08:14:52;;;;;;;11.45;4.60;;;18.60;99.90;;;;;;5033357;28;20322;-48
2023/07/26 08:17:18;;;;;;;6.07;3.85;;;18.80;99.90;;;;;;5033117;28;20632;-48
2023/07/26 08:19:45;;;;;;;5.78;4.05;;;19.10;99.90;;;;;;5033225;28;20171;-48
2023/07/26 08:22:11;;;;;;;7.93;3.63;;;19.60;99.90;;;;;;5033123;28;20167;-48
2023/07/26 08:24:37;;;;;;;8.85;4.25;;;19.30;99.90;;;;;;5033622;28;20531;-48
2023/07/26 08:27:03;;;;;;;8.65;4.38;;;19.30;99.90;;;;;;5033037;28;20175;-49
2023/07/26 08:29:28;;;;;;;8.55;3.80;;;19.20;99.90;;;;;;5033294;28;20179;-48
2023/07/26 08:31:54;;;;;;;5.93;3.70;;;19.30;99.90;;;;;;5047211;28;20179;-48
2023/07/26 08:34:19;;;;;;;6.65;3.47;;;19.60;99.90;;;;;;5051080;28;20210;-48
2023/07/26 08:36:45;;;;;;;7.72;3.90;;;19.30;99.90;;;;;;5052755;28;20248;-48
2023/07/26 08:39:11;;;;;;;8.88;4.07;;;19.10;99.90;;;;;;5052810;28;20272;-49
2023/07/26 08:41:37;;;;;;;6.95;3.83;;;19.20;99.90;;;;;;5040571;28;20198;-48
2023/07/26 08:44:04;;;;;;;6.63;3.75;;;19.20;99.90;;;;;;5032788;28;20186;-48
2023/07/26 08:46:30;;;;;;;8.82;3.47;;;19.30;99.90;;;;;;5032782;28;20163;-49
2023/07/26 08:48:57;;;;;;;7.30;3.88;;;19.20;99.90;;;;;;5032647;28;20167;-48
2023/07/26 08:51:22;;;;;;;9.15;3.60;;;19.40;99.90;;;;;;5046831;28;20224;-48
2023/07/26 08:53:49;;;;;;;8.02;3.97;;;19.10;99.90;;;;;;5052457;28;20206;-48
2023/07/26 08:56:15;;;;;;;7.45;3.70;;;18.90;99.90;;;;;;5052549;28;20671;-48
2023/07/26 08:58:42;;;;;;;8.10;4.05;;;18.90;99.90;;;;;;5046517;28;20635;-50
2023/07/26 09:01:08;;;;;;;9.75;3.95;;;19.20;99.90;;;;;;5032576;28;20264;-50
2023/07/26 09:03:34;;;;;;;8.23;4.20;;;19.40;99.90;;;;;;5048888;28;20682;-50
2023/07/26 09:06:06;;;;;;;6.25;4.40;;;19.60;99.90;;;;;;5052296;28;20635;-50
2023/07/26 09:08:32;;;;;;;5.80;4.25;;;19.60;99.90;;;;;;5051194;28;20179;-50
2023/07/26 09:11:00;;;;;;;9.45;4.30;;;19.70;99.90;;;;;;5050711;28;20514;-49
2023/07/26 09:13:25;;;;;;;7.20;3.90;;;20.10;99.90;;;;;;5050392;28;20217;-50
2023/07/26 09:15:51;;;;;;;9.70;3.95;;;19.90;99.90;;;;;;5050513;28;20185;-50
2023/07/26 09:18:17;;;;;;;7.10;3.80;;;19.80;99.90;;;;;;5050972;28;20163;-50
2023/07/26 09:20:42;;;;;;;5.53;3.17;;;20.40;99.90;;;;;;5051760;28;20169;-50
2023/07/26 09:23:10;;;;;;;6.25;3.17;;;20.50;99.90;;;;;;5052247;28;20653;-50
2023/07/26 09:25:39;;;;;;;7.35;3.90;;;20.50;99.90;;;;;;5052326;28;20167;-51
2023/07/26 09:28:07;;;;;;;7.88;3.53;;;20.80;99.90;;;;;;5052341;28;20320;-52
2023/07/26 09:30:42;;;;;;;5.57;3.72;;;20.90;99.90;;;;;;5051703;28;20178;-53
2023/07/26 09:33:09;;;;;;;5.82;3.90;;;21.10;99.90;;;;;;5052359;28;20688;-51
2023/07/26 09:35:46;;;;;;;9.93;4.18;;;21.20;99.90;;;;;;5052261;28;20171;-51
2023/07/26 09:38:17;;;;;;;7.43;4.00;;;21.30;99.90;;;;;;5051746;28;20186;-52
2023/07/26 09:40:44;;;;;;;7.63;3.95;;;20.80;99.90;;;;;;5051674;28;20189;-52
2023/07/26 09:43:09;;;;;;;8.75;3.42;;;20.90;99.90;;;;;;5051490;28;20817;-49
2023/07/26 09:45:36;;;;;;;4.28;3.38;;;20.50;99.90;;;;;;5051965;28;20195;-52
2023/07/26 09:48:14;;;;;;;7.25;4.10;;;19.90;99.90;;;;;;5051793;28;20249;-47
2023/07/26 09:50:41;;;;;;;11.27;4.82;;;19.40;99.90;;;;;;5051788;28;20225;-48
2023/07/26 09:53:07;;;;;;;6.88;4.40;;;18.90;99.90;;;;;;5051439;28;20213;-47
2023/07/26 09:55:33;;;;;;;6.00;4.40;;;18.80;99.90;;;;;;5051048;28;20167;-48
2023/07/26 09:58:00;;;;;;;9.65;4.85;;;18.80;99.90;;;;;;5051111;28;20159;-48
2023/07/26 10:00:28;;;;;;;8.90;4.43;;;18.40;99.90;;;;;;5050562;28;20261;-52
2023/07/26 10:03:07;;;;;;;8.73;4.40;;;17.90;99.90;;;;;;5050696;28;20194;-52
2023/07/26 10:05:44;;;;;;;8.50;4.63;;;17.60;99.90;;;;;;5050668;28;20169;-52
2023/07/26 10:08:11;;;;;;;8.52;4.40;;;17.60;99.90;;;;;;5051009;28;20163;-48
2023/07/26 10:10:44;;;;;;;8.38;4.13;;;17.60;99.90;;;;;;5051059;28;20650;-52
2023/07/26 10:13:11;;;;;;;6.63;3.80;;;17.80;99.90;;;;;;5050870;28;20313;-51
2023/07/26 10:15:41;;;;;;;10.68;3.97;;;18.00;99.90;;;;;;5051033;28;20163;-50
2023/07/26 10:18:07;;;;;;;4.43;3.58;;;18.20;99.90;;;;;;5051168;28;20245;-51
2023/07/26 10:20:35;;;;;;;4.63;3.20;;;18.80;99.90;;;;;;5050562;28;20212;-52
2023/07/26 10:23:04;;;;;;;7.45;3.28;;;19.40;99.90;;;;;;5049247;28;20274;-52
2023/07/26 10:25:39;;;;;;;6.22;3.40;;;19.80;99.90;;;;;;5049441;28;21022;-51
2023/07/26 10:28:07;;;;;;;6.47;3.78;;;20.30;99.90;;;;;;5051246;28;20231;-52
2023/07/26 10:30:32;;;;;;;5.82;3.20;;;20.60;99.90;;;;;;5049272;28;20167;-52
2023/07/26 10:33:00;;;;;;;6.30;3.70;;;20.20;99.90;;;;;;5049052;28;20185;-49
2023/07/26 10:35:34;;;;;;;5.82;3.33;;;19.70;99.90;;;;;;5050241;28;20175;-52
2023/07/26 10:38:03;;;;;;;5.80;3.33;;;19.50;99.90;;;;;;5050432;28;20242;-51
2023/07/26 10:40:37;;;;;;;6.53;3.58;;;19.00;99.90;;;;;;5050364;28;20264;-52
2023/07/26 10:43:17;;;;;;;8.43;3.42;;;18.60;99.90;;;;;;5050346;28;20257;-52
2023/07/26 10:45:46;;;;;;;4.95;3.15;;;18.20;99.90;;;;;;5050247;28;20201;-52
2023/07/26 10:48:25;;;;;;;7.60;3.60;;;18.00;99.90;;;;;;5050270;28;20174;-51
2023/07/26 10:50:54;;;;;;;8.23;3.40;;;17.80;99.90;;;;;;5050601;28;20181;-51
2023/07/26 10:53:46;;;;;;;7.97;4.15;;;17.60;99.90;;;;;;5050057;28;20190;-51
2023/07/26 10:56:18;;;;;;;7.78;4.13;;;17.60;99.90;;;;;;5049080;28;20194;-52
2023/07/26 10:59:16;;;;;;;8.57;4.93;;;17.60;99.90;;;;;;5049899;28;20253;-51
2023/07/26 11:01:46;;;;;;;8.80;5.32;;;17.60;99.90;;;;;;5049876;28;20178;-52
2023/07/26 11:04:13;;;;;;;9.48;5.70;;;17.70;99.90;;;;;;5049880;28;20171;-51
2023/07/26 11:06:51;;;;;;;11.15;5.22;;;17.90;99.90;;;;;;5050066;28;20163;-48
2023/07/26 11:09:33;;;;;;;7.70;5.47;;;18.30;99.90;;;;;;5049812;28;20166;-51
2023/07/26 11:12:25;;;;;;;8.32;5.78;;;18.80;99.90;;;;;;5049636;28;20753;-52
2023/07/26 11:14:51;;;;;;;6.30;4.68;;;19.40;99.90;;;;;;5046178;28;20233;-52
2023/07/26 11:17:16;;;;;;;9.95;5.65;;;19.60;99.90;;;;;;5049754;28;20924;-52
2023/07/26 11:19:47;;;;;;;7.88;4.85;;;19.60;99.90;;;;;;5049972;28;20283;-53
2023/07/26 11:22:14;;;;;;;8.32;4.78;;;19.40;99.90;;;;;;5050109;28;20174;-51
2023/07/26 11:24:40;;;;;;;7.47;4.32;;;19.30;99.90;;;;;;5049631;28;20245;-51
2023/07/26 11:27:07;;;;;;;7.05;4.85;;;19.20;99.90;;;;;;5049764;28;20257;-50
2023/07/26 11:29:33;;;;;;;6.38;4.93;;;18.90;99.90;;;;;;5049066;28;20537;-51
2023/07/26 11:32:01;;;;;;;5.80;4.10;;;19.10;99.90;;;;;;5049334;28;20174;-50
2023/07/26 11:34:27;;;;;;;7.22;4.50;;;19.40;99.90;;;;;;5049382;28;20787;-49
2023/07/26 11:37:08;;;;;;;7.88;4.90;;;19.50;99.90;;;;;;5049324;28;20159;-51
2023/07/26 11:39:35;;;;;;;6.47;4.75;;;19.90;99.90;;;;;;5049983;28;20182;-53
2023/07/26 11:42:02;;;;;;;7.88;4.85;;;20.30;99.90;;;;;;5051664;28;20179;-50
2023/07/26 11:44:28;;;;;;;7.53;4.35;;;20.40;99.90;;;;;;5054142;28;20178;-52
2023/07/26 11:46:54;;;;;;;8.07;5.45;;;20.20;99.90;;;;;;5051949;28;20170;-52
2023/07/26 11:49:21;;;;;;;10.00;4.28;;;20.60;99.90;;;;;;5053668;28;20174;-51
2023/07/26 11:51:48;;;;;;;5.40;3.42;;;20.70;99.90;;;;;;5052332;28;20166;-52
2023/07/26 11:54:14;;;;;;;4.88;3.25;;;20.60;99.90;;;;;;5052064;28;20217;-52
2023/07/26 11:56:41;;;;;;;6.18;3.13;;;20.70;99.90;;;;;;5053278;28;20803;-50
2023/07/26 11:59:08;;;;;;;6.15;3.85;;;20.90;99.90;;;;;;5053510;28;20166;-50
2023/07/26 12:01:36;;;;;;;6.93;3.70;;;21.40;99.90;;;;;;5052279;28;20186;-51
2023/07/26 12:04:08;;;;;;;4.35;3.25;;;21.40;99.90;;;;;;5053400;28;20303;-48
2023/07/26 12:06:35;;;;;;;4.82;3.88;;;19.90;99.90;;;;;;5053929;28;20173;-49
2023/07/26 12:09:11;;;;;;;4.60;3.67;;;21.60;99.90;;;;;;5053460;28;20178;-50
2023/07/26 12:11:38;;;;;;;3.63;2.72;;;21.80;99.90;;;;;;5051997;28;20700;-52
2023/07/26 12:14:04;;;;;;;3.20;2.53;;;21.60;99.90;;;;;;5053543;28;20206;-48
2023/07/26 12:16:31;;;;;;;5.05;2.90;;;21.50;99.90;;;;;;5053055;28;20173;-49
2023/07/26 12:19:00;;;;;;;5.18;2.55;;;21.40;99.90;;;;;;5053276;28;20174;-48
2023/07/26 12:21:26;;;;;;;3.78;2.45;;;21.60;99.90;;;;;;5053017;28;20158;-49
2023/07/26 12:24:00;;;;;;;4.40;2.42;;;21.70;99.90;;;;;;5053021;28;20174;-49
2023/07/26 12:26:30;;;;;;;4.97;2.65;;;21.90;99.90;;;;;;5053410;28;20181;-49
2023/07/26 12:28:58;;;;;;;4.43;2.70;;;22.10;99.90;;;;;;5052974;28;20163;-48
2023/07/26 12:31:29;;;;;;;4.15;2.33;;;21.60;99.90;;;;;;5051728;28;20163;-48
2023/07/26 12:33:56;;;;;;;4.28;2.60;;;21.50;99.90;;;;;;5053107;28;20621;-49
2023/07/26 12:36:23;;;;;;;2.85;2.60;;;21.90;99.90;;;;;;5053091;28;20181;-47
2023/07/26 12:38:49;;;;;;;5.43;2.42;;;21.90;99.90;;;;;;5052640;28;20681;-47
2023/07/26 12:41:15;;;;;;;6.55;2.90;;;21.90;99.90;;;;;;5052888;28;20250;-48
2023/07/26 12:43:41;;;;;;;5.35;3.45;;;22.30;99.90;;;;;;5052707;28;20167;-48
2023/07/26 12:46:06;;;;;;;3.20;2.83;;;22.60;99.90;;;;;;5052793;28;20261;-48